Time;durP1;ratioP1;P1;durP2;ratioP2;P2;SDS_P1;SDS_P2;PMS_P1;PMS_P2;Temp;Humidity;BMP_temperature;BMP_pressure;BME280_temperature;BME280_humidity;BME280_pressure;Samples;Min_cycle;Max_cycle;Signal;HPM_P1;HPM_P2
2022/09/05 00:00:21;;;;;;;7.33;5.53;;;;;;;7.58;100.00;100175.70;1705143;84;21158;-68
2022/09/05 00:03:05;;;;;;;8.40;4.87;;;;;;;7.55;100.00;100174.47;1705081;83;21129;-68
2022/09/05 00:05:49;;;;;;;7.55;5.05;;;;;;;7.53;100.00;100167.60;1705018;84;21070;-68
2022/09/05 00:08:39;;;;;;;9.63;5.50;;;;;;;7.52;100.00;100173.22;1705128;84;21446;-68
2022/09/05 00:11:35;;;;;;;9.95;5.95;;;;;;;7.51;100.00;100174.53;1705158;84;21466;-68
2022/09/05 00:14:45;;;;;;;14.28;6.30;;;;;;;7.49;100.00;100169.83;1705038;84;21498;-68
2022/09/05 00:17:43;;;;;;;9.00;5.35;;;;;;;7.49;100.00;100172.41;1705100;84;21162;-68
2022/09/05 00:20:34;;;;;;;5.53;4.70;;;;;;;7.48;100.00;100169.41;1701513;84;21025;-68
2022/09/05 00:23:33;;;;;;;8.15;5.72;;;;;;;7.45;100.00;100172.91;1704773;84;21014;-67
2022/09/05 00:26:37;;;;;;;7.90;5.92;;;;;;;7.43;100.00;100172.07;1704542;84;20982;-69
2022/09/05 00:29:16;;;;;;;9.53;5.75;;;;;;;7.41;100.00;100172.98;1703847;84;21451;-67
2022/09/05 00:32:05;;;;;;;8.85;5.65;;;;;;;7.37;100.00;100170.91;1704696;84;21170;-67
2022/09/05 00:35:07;;;;;;;6.87;4.70;;;;;;;7.36;100.00;100176.96;1702174;84;21455;-67
2022/09/05 00:37:40;;;;;;;8.38;5.55;;;;;;;7.36;100.00;100170.94;1702435;83;20963;-68
2022/09/05 00:40:25;;;;;;;;;;;;;;;7.34;100.00;100172.69;1705908;84;21467;-68
2022/09/05 00:42:57;;;;;;;9.10;5.70;;;;;;;7.31;100.00;100176.62;1705315;84;20165;-69
2022/09/05 00:45:41;;;;;;;7.67;5.03;;;;;;;7.24;100.00;100168.95;1709289;82;21759;-68
2022/09/05 00:48:35;;;;;;;5.58;4.55;;;;;;;7.23;100.00;100169.83;1745899;82;20925;-68
2022/09/05 00:51:53;;;;;;;8.55;5.67;;;;;;;7.22;100.00;100169.41;1746115;82;21394;-68
2022/09/05 00:54:30;;;;;;;7.20;5.30;;;;;;;7.22;100.00;100170.70;1742677;82;21056;-67
2022/09/05 00:57:22;;;;;;;7.28;5.65;;;;;;;7.23;100.00;100169.83;1745742;82;20926;-67
2022/09/05 01:00:15;;;;;;;7.83;5.08;;;;;;;7.21;100.00;100170.29;1745821;82;21841;-68
2022/09/05 01:03:14;;;;;;;7.15;5.12;;;;;;;7.17;100.00;100167.80;1745898;82;20985;-67
2022/09/05 01:06:16;;;;;;;6.12;4.47;;;;;;;7.15;100.00;100167.83;1745817;82;20945;-67
2022/09/05 01:09:15;;;;;;;7.35;5.20;;;;;;;7.12;100.00;100157.96;1746161;82;20929;-68
2022/09/05 01:12:00;;;;;;;6.47;4.60;;;;;;;7.11;100.00;100158.40;1746449;82;21004;-68
2022/09/05 01:14:47;;;;;;;6.83;4.47;;;;;;;7.08;100.00;100151.98;1746379;82;21160;-68
2022/09/05 01:17:28;;;;;;;6.10;4.08;;;;;;;7.06;100.00;100152.87;1745906;82;20938;-68
2022/09/05 01:20:36;;;;;;;6.67;4.83;;;;;;;7.04;100.00;100153.34;1745733;82;20981;-68
2022/09/05 01:23:29;;;;;;;8.55;5.22;;;;;;;7.01;100.00;100152.95;1746475;82;21437;-68
2022/09/05 01:26:10;;;;;;;7.58;5.28;;;;;;;6.99;100.00;100149.56;1722792;82;20930;-67
2022/09/05 01:29:01;;;;;;;8.08;5.03;;;;;;;7.00;100.00;100146.50;1729829;82;21347;-68
2022/09/05 01:31:51;;;;;;;5.85;4.28;;;;;;;6.99;100.00;100148.27;1745641;82;20957;-68
2022/09/05 01:34:40;;;;;;;9.13;4.55;;;;;;;6.99;100.00;100149.56;1744793;82;21388;-67
2022/09/05 01:37:21;;;;;;;5.40;4.47;;;;;;;6.99;100.00;100153.88;1724961;82;20933;-67
2022/09/05 01:40:14;;;;;;;6.58;5.00;;;;;;;6.96;100.00;100157.36;1745989;82;20984;-68
2022/09/05 01:42:49;;;;;;;6.05;4.58;;;;;;;6.93;100.00;100155.26;1745118;82;21246;-67
2022/09/05 01:45:47;;;;;;;6.53;4.65;;;;;;;6.89;100.00;100149.27;1746174;82;21378;-67
2022/09/05 01:48:49;;;;;;;6.53;4.22;;;;;;;6.89;100.00;100151.42;1745951;82;20917;-67
2022/09/05 01:51:40;;;;;;;7.30;5.72;;;;;;;6.90;100.00;100146.67;1746137;82;21413;-67
2022/09/05 01:54:38;;;;;;;7.00;4.75;;;;;;;6.88;100.00;100148.42;1745895;82;20937;-67
2022/09/05 01:57:39;;;;;;;7.15;5.10;;;;;;;6.84;100.00;100141.58;1746488;82;21169;-67
2022/09/05 02:00:14;;;;;;;8.48;6.10;;;;;;;6.77;100.00;100143.87;1746396;82;20954;-68
2022/09/05 02:03:15;;;;;;;8.45;6.03;;;;;;;6.74;100.00;100141.33;1746125;82;21468;-68
2022/09/05 02:06:10;;;;;;;7.15;5.50;;;;;;;6.71;100.00;100140.52;1745944;82;20949;-68
2022/09/05 02:09:22;;;;;;;8.70;6.03;;;;;;;6.68;100.00;100145.28;1745948;82;20938;-67
2022/09/05 02:11:55;;;;;;;6.83;5.10;;;;;;;6.68;100.00;100141.41;1745889;82;21170;-68
2022/09/05 02:14:49;;;;;;;8.73;4.80;;;;;;;6.69;100.00;100140.53;1745766;82;20922;-67
2022/09/05 02:17:42;;;;;;;12.78;5.17;;;;;;;6.70;100.00;100138.80;1745931;82;21404;-68
2022/09/05 02:20:44;;;;;;;7.30;5.80;;;;;;;6.67;100.00;100138.41;1746574;82;20981;-68
2022/09/05 02:23:30;;;;;;;6.95;5.50;;;;;;;6.65;100.00;100132.40;1748106;82;21006;-68
2022/09/05 02:26:19;;;;;;;7.40;4.87;;;;;;;6.66;100.00;100132.81;1743026;82;21436;-68
2022/09/05 02:29:12;;;;;;;7.28;5.10;;;;;;;6.65;100.00;100132.84;1747098;82;20921;-68
2022/09/05 02:31:47;;;;;;;8.28;5.30;;;;;;;6.64;100.00;100131.13;1746330;82;21006;-68
2022/09/05 02:34:39;;;;;;;9.90;6.00;;;;;;;6.63;100.00;100124.25;1745806;82;21517;-68
2022/09/05 02:37:36;;;;;;;11.22;5.75;;;;;;;6.63;100.00;100125.10;1746111;82;20926;-68
2022/09/05 02:40:20;;;;;;;6.37;4.80;;;;;;;6.62;100.00;100131.59;1745823;82;21453;-68
2022/09/05 02:43:17;;;;;;;6.62;4.42;;;;;;;6.60;100.00;100133.34;1745290;82;20977;-68
2022/09/05 02:46:01;;;;;;;8.53;5.78;;;;;;;6.58;100.00;100134.68;1746056;82;21453;-68
2022/09/05 02:48:53;;;;;;;12.82;5.33;;;;;;;6.55;100.00;100136.87;1745871;82;20985;-68
2022/09/05 02:51:39;;;;;;;9.90;5.47;;;;;;;6.55;100.00;100142.03;1746117;82;21541;-69
2022/09/05 02:54:16;;;;;;;7.42;5.00;;;;;;;6.54;100.00;100140.33;1724611;82;21191;-69
2022/09/05 02:57:12;;;;;;;7.97;4.80;;;;;;;6.53;100.00;100131.30;1718428;82;21085;-69
2022/09/05 03:00:19;;;;;;;6.72;5.00;;;;;;;6.54;100.00;100135.59;1745940;82;21009;-69
2022/09/05 03:03:11;;;;;;;9.20;5.78;;;;;;;6.52;100.00;100133.47;1745872;82;20941;-67
2022/09/05 03:05:58;;;;;;;9.15;5.75;;;;;;;6.51;100.00;100135.63;1744436;82;20989;-67
2022/09/05 03:09:04;;;;;;;7.12;6.08;;;;;;;6.51;100.00;100129.17;1679274;84;21238;-68
2022/09/05 03:12:07;;;;;;;9.58;4.67;;;;;;;6.52;100.00;100134.33;1705148;84;21010;-68
2022/09/05 03:15:25;;;;;;;8.43;5.37;;;;;;;6.54;100.00;100127.84;1662130;85;21005;-67
2022/09/05 03:18:46;;;;;;;10.58;5.60;;;;;;;6.55;100.00;100123.95;1745657;82;20966;-68
2022/09/05 03:21:46;;;;;;;11.18;5.78;;;;;;;6.58;100.00;100124.78;1746781;82;20985;-68
2022/09/05 03:24:41;;;;;;;8.30;4.70;;;;;;;6.60;100.00;100123.00;1746244;82;21259;-68
2022/09/05 03:27:16;;;;;;;9.85;4.62;;;;;;;6.60;100.00;100125.14;1745856;82;20994;-68
2022/09/05 03:30:10;;;;;;;10.10;5.08;;;;;;;6.58;100.00;100135.12;1745823;82;20973;-68
2022/09/05 03:33:35;;;;;;;10.70;5.28;;;;;;;6.56;100.00;100132.12;1749189;82;20950;-68
2022/09/05 03:36:44;;;;;;;7.65;4.83;;;;;;;6.58;100.00;100140.28;1746457;82;20988;-68
2022/09/05 03:39:22;;;;;;;11.22;5.05;;;;;;;6.57;99.91;100132.97;1746204;82;21249;-68
2022/09/05 03:42:12;;;;;;;8.18;4.80;;;;;;;6.58;99.56;100135.97;1726681;82;21008;-68
2022/09/05 03:45:18;;;;;;;7.40;5.35;;;;;;;6.60;99.51;100132.90;1745807;82;20996;-68
2022/09/05 03:48:07;;;;;;;11.80;5.53;;;;;;;6.66;99.31;100135.41;1715873;82;20981;-68
2022/09/05 03:51:07;;;;;;;9.58;5.17;;;;;;;6.71;99.28;100136.19;1715620;83;20985;-68
2022/09/05 03:54:01;;;;;;;12.85;5.90;;;;;;;6.77;99.19;100126.20;1715471;83;21213;-68
2022/09/05 03:56:48;;;;;;;9.70;5.10;;;;;;;6.83;98.92;100123.50;1714766;83;20966;-68
2022/09/05 03:59:42;;;;;;;9.58;4.87;;;;;;;6.90;99.04;100126.42;1712744;83;21018;-67
2022/09/05 04:02:09;;;;;;;;;;;;;;;6.97;99.36;100129.33;1715010;83;21013;-67
2022/09/05 04:04:47;;;;;;;8.45;5.30;;;;;;;7.06;99.42;100126.58;1712745;83;21401;-68
2022/09/05 04:07:26;;;;;;;12.15;5.28;;;;;;;7.14;99.74;100131.19;1712773;83;21815;-68
2022/09/05 04:10:04;;;;;;;10.38;5.53;;;;;;;7.23;100.00;100129.72;1712712;83;21022;-69
2022/09/05 04:12:38;;;;;;;8.65;4.62;;;;;;;7.35;100.00;100128.67;1675906;84;21023;-69
2022/09/05 04:15:36;;;;;;;14.45;5.00;;;;;;;7.44;100.00;100132.81;1695191;83;21522;-69
2022/09/05 04:18:21;;;;;;;8.00;5.40;;;;;;;7.54;100.00;100130.05;1708385;83;21018;-69
2022/09/05 04:21:05;;;;;;;13.20;5.90;;;;;;;7.67;99.62;100138.42;1712485;83;21247;-69
2022/09/05 04:23:52;;;;;;;12.05;5.00;;;;;;;7.75;99.03;100136.99;1712584;83;20978;-69
2022/09/05 04:26:45;;;;;;;9.60;4.50;;;;;;;7.83;98.41;100141.13;1712594;83;20978;-69
2022/09/05 04:29:38;;;;;;;15.15;5.55;;;;;;;7.90;97.86;100135.39;1679046;84;21154;-69
2022/09/05 04:32:51;;;;;;;8.33;5.35;;;;;;;8.00;97.15;100129.13;1707515;83;20967;-68
2022/09/05 04:35:57;;;;;;;10.32;5.30;;;;;;;8.09;96.85;100135.86;1708889;83;21264;-68
2022/09/05 04:38:40;;;;;;;7.65;5.05;;;;;;;8.22;96.59;100132.13;1713155;83;21018;-68
2022/09/05 04:41:18;;;;;;;7.42;4.85;;;;;;;8.35;96.40;100131.47;1712206;83;26340;-68
2022/09/05 04:43:50;;;;;;;8.45;3.92;;;;;;;8.45;95.99;100126.03;1712688;83;21478;-68
2022/09/05 04:46:39;;;;;;;8.25;4.90;;;;;;;8.55;95.31;100130.58;1712767;83;21022;-68
2022/09/05 04:49:32;;;;;;;10.20;5.10;;;;;;;8.61;94.87;100132.56;1695485;83;21147;-68
2022/09/05 04:52:45;;;;;;;9.25;4.67;;;;;;;8.73;94.71;100130.16;1711944;83;20954;-69
2022/09/05 04:55:21;;;;;;;10.45;5.58;;;;;;;8.85;94.74;100132.45;1712717;83;21415;-69
2022/09/05 04:57:59;;;;;;;16.90;5.75;;;;;;;8.99;94.48;100139.44;1712788;83;21021;-69
2022/09/05 05:00:41;;;;;;;13.78;5.33;;;;;;;9.10;94.15;100143.09;1712676;83;20982;-68
2022/09/05 05:03:15;;;;;;;11.55;6.12;;;;;;;9.22;93.91;100144.06;1686416;83;21270;-68
2022/09/05 05:06:11;;;;;;;13.65;7.60;;;;;;;9.32;93.47;100140.36;1685196;83;21143;-68
2022/09/05 05:09:08;;;;;;;14.18;6.83;;;;;;;9.44;93.22;100139.17;1712564;83;21014;-68
2022/09/05 05:11:44;;;;;;;12.98;6.58;;;;;;;9.58;92.89;100137.53;1711985;83;21045;-69
2022/09/05 05:14:41;;;;;;;13.68;7.03;;;;;;;9.75;92.12;100134.03;1712822;83;21073;-68
2022/09/05 05:17:10;;;;;;;9.78;6.33;;;;;;;9.88;91.58;100131.48;1712804;83;21768;-68
2022/09/05 05:19:42;;;;;;;24.00;7.90;;;;;;;10.07;90.74;100133.56;1709363;82;21089;-68
2022/09/05 05:22:21;;;;;;;27.48;10.00;;;;;;;10.22;90.03;100133.14;1710708;83;21057;-68
2022/09/05 05:24:52;;;;;;;15.70;6.90;;;;;;;10.35;89.45;100137.95;1712594;83;20982;-70
2022/09/05 05:27:29;;;;;;;17.77;7.17;;;;;;;10.51;89.12;100137.03;1711308;83;21021;-69
2022/09/05 05:30:12;;;;;;;18.92;7.00;;;;;;;10.66;88.54;100131.80;1710040;83;22257;-69
2022/09/05 05:32:45;;;;;;;13.90;6.45;;;;;;;10.86;87.89;100145.03;1700199;83;20974;-69
2022/09/05 05:35:25;;;;;;;11.68;6.17;;;;;;;11.03;87.06;100141.87;1710256;83;21132;-70
2022/09/05 05:38:06;;;;;;;16.30;5.97;;;;;;;11.16;86.27;100136.69;1696297;83;21056;-72
2022/09/05 05:40:33;;;;;;;13.93;6.58;;;;;;;11.32;85.64;100140.93;1706748;82;21068;-70
2022/09/05 05:43:15;;;;;;;11.88;5.90;;;;;;;11.50;85.24;100136.39;1710207;83;21974;-70
2022/09/05 05:45:42;;;;;;;11.78;5.80;;;;;;;11.69;84.58;100137.90;1706616;82;21033;-70
2022/09/05 05:48:23;;;;;;;14.58;6.97;;;;;;;11.91;83.19;100141.47;1726604;82;21553;-70
2022/09/05 05:51:12;;;;;;;12.70;5.62;;;;;;;12.06;81.57;100142.66;1741775;82;21032;-65
2022/09/05 05:53:54;;;;;;;16.40;6.15;;;;;;;12.18;80.82;100142.23;1675192;82;38585;-74
2022/09/05 05:56:47;;;;;;;18.48;5.95;;;;;;;12.35;80.45;100146.81;1735656;82;21606;-71
2022/09/05 05:59:56;;;;;;;10.53;5.05;;;;;;;12.56;79.70;100143.38;1728415;82;21034;-70
2022/09/05 06:03:20;;;;;;;10.35;5.58;;;;;;;12.77;78.65;100144.30;1731844;81;21020;-70
2022/09/05 06:06:11;;;;;;;16.75;5.12;;;;;;;12.99;77.24;100140.38;1726417;80;21166;-70
2022/09/05 06:09:07;;;;;;;10.55;4.05;;;;;;;13.18;75.69;100149.64;1743924;80;21056;-69
2022/09/05 06:12:15;;;;;;;4.17;3.35;;;;;;;13.34;74.10;100142.86;1738401;80;21259;-70
2022/09/05 06:15:24;;;;;;;7.90;4.53;;;;;;;13.53;72.84;100142.47;1707214;83;21045;-70
2022/09/05 06:18:29;;;;;;;11.15;4.08;;;;;;;13.73;72.07;100143.77;1755085;80;21061;-71
2022/09/05 06:21:18;;;;;;;7.42;3.80;;;;;;;13.99;70.84;100142.59;1713361;82;21115;-70
2022/09/05 06:24:02;;;;;;;7.08;4.00;;;;;;;14.23;69.31;100141.09;1732210;82;21002;-71
2022/09/05 06:27:08;;;;;;;6.08;3.47;;;;;;;14.41;68.67;100137.66;1738291;82;21168;-70
2022/09/05 06:30:06;;;;;;;7.03;4.10;;;;;;;14.61;67.85;100144.12;1725739;82;20987;-69
2022/09/05 06:33:04;;;;;;;4.17;3.60;;;;;;;14.89;65.31;100146.28;1708578;83;21554;-70
2022/09/05 06:35:51;;;;;;;7.40;3.22;;;;;;;14.97;64.71;100149.39;1697723;83;22356;-71
2022/09/05 06:38:58;;;;;;;6.10;3.35;;;;;;;14.97;64.71;100149.39;1706922;83;21048;-71
2022/09/05 06:41:51;;;;;;;6.95;3.08;;;;;;;15.07;63.88;100155.02;1677214;84;21260;-71
2022/09/05 06:44:30;;;;;;;13.72;3.77;;;;;;;15.19;63.43;100161.44;1684425;83;21082;-71
2022/09/05 06:46:59;;;;;;;9.25;4.00;;;;;;;15.27;62.77;100159.27;1706565;83;21450;-70
2022/09/05 06:49:46;;;;;;;16.17;4.35;;;;;;;15.37;62.17;100156.59;1677133;83;21045;-70
2022/09/05 06:53:08;;;;;;;14.78;7.20;;;;;;;15.46;62.05;100158.27;1671728;84;20981;-70
2022/09/05 06:56:09;;;;;;;12.45;3.58;;;;;;;15.61;61.99;100156.66;1679954;84;21159;-70
2022/09/05 06:58:59;;;;;;;7.67;2.83;;;;;;;15.87;61.77;100153.16;1625528;86;21021;-71
2022/09/05 07:01:29;;;;;;;5.03;2.98;;;;;;;16.09;61.26;100153.73;1694306;83;21080;-70
2022/09/05 07:04:19;;;;;;;5.35;3.30;;;;;;;16.27;60.27;100147.49;1687748;84;20991;-71
2022/09/05 07:07:17;;;;;;;6.50;3.80;;;;;;;16.44;59.51;100153.98;1687080;84;21018;-71
2022/09/05 07:09:58;;;;;;;6.40;2.67;;;;;;;16.66;58.77;100148.44;1685344;83;21149;-71
2022/09/05 07:12:33;;;;;;;3.92;2.55;;;;;;;16.86;57.48;100148.63;1684543;83;21335;-70
2022/09/05 07:15:15;;;;;;;7.10;2.55;;;;;;;16.99;57.39;100150.93;1677363;85;21018;-70
2022/09/05 07:18:06;;;;;;;7.90;3.08;;;;;;;17.11;56.57;100156.81;1688598;82;21182;-69
2022/09/05 07:20:46;;;;;;;5.65;3.62;;;;;;;17.18;56.27;100155.54;1683516;83;21037;-70
2022/09/05 07:23:45;;;;;;;9.68;7.25;;;;;;;17.26;56.43;100161.65;1685257;83;21228;-70
2022/09/05 07:26:13;;;;;;;10.32;3.92;;;;;;;17.33;56.06;100163.00;1708383;83;21477;-70
2022/09/05 07:28:42;;;;;;;7.60;3.77;;;;;;;17.44;55.38;100160.57;1660231;85;21158;-70
2022/09/05 07:31:21;;;;;;;7.92;3.58;;;;;;;17.50;55.23;100156.75;1684715;85;21007;-70
2022/09/05 07:33:47;;;;;;;19.75;11.28;;;;;;;17.54;54.65;100156.95;1684665;84;21071;-70
2022/09/05 07:36:18;;;;;;;12.82;5.30;;;;;;;17.61;54.76;100158.25;1684978;84;21119;-69
2022/09/05 07:38:49;;;;;;;3.95;3.05;;;;;;;17.70;54.62;100155.59;1677343;84;21451;-70
2022/09/05 07:41:25;;;;;;;8.53;3.12;;;;;;;17.85;54.37;100159.92;1705134;83;20970;-69
2022/09/05 07:44:06;;;;;;;5.55;3.10;;;;;;;17.99;54.12;100157.29;1709039;83;21505;-69
2022/09/05 07:46:37;;;;;;;14.65;5.40;;;;;;;18.10;52.65;100157.97;1700026;83;21446;-69
2022/09/05 07:49:13;;;;;;;4.33;2.90;;;;;;;18.14;52.41;100151.58;1692690;83;21219;-70
2022/09/05 07:52:01;;;;;;;2.80;2.42;;;;;;;18.17;52.25;100153.56;1699475;83;21034;-70
2022/09/05 07:54:39;;;;;;;4.83;3.08;;;;;;;18.19;50.58;100160.86;1731316;82;21000;-70
2022/09/05 07:57:08;;;;;;;5.17;3.10;;;;;;;18.18;48.16;100161.83;1713152;82;21087;-71
2022/09/05 07:59:39;;;;;;;5.10;2.95;;;;;;;18.19;47.70;100163.50;1713356;82;20964;-69
2022/09/05 08:02:09;;;;;;;4.75;2.72;;;;;;;18.18;46.25;100155.72;1734275;82;21325;-69
2022/09/05 08:04:41;;;;;;;5.55;3.17;;;;;;;18.24;46.19;100169.33;1734319;82;20996;-69
2022/09/05 08:07:24;;;;;;;5.47;3.40;;;;;;;18.38;45.94;100168.97;1734388;82;21397;-70
2022/09/05 08:09:55;;;;;;;3.85;3.45;;;;;;;18.55;45.67;100168.75;1734440;82;21059;-69
2022/09/05 08:12:25;;;;;;;5.03;4.20;;;;;;;18.64;45.28;100158.95;1734360;82;21051;-70
2022/09/05 08:15:23;;;;;;;6.00;3.90;;;;;;;18.65;45.73;100161.97;1734559;82;21143;-70
2022/09/05 08:18:11;;;;;;;10.85;4.30;;;;;;;18.64;46.09;100165.55;1733310;81;21564;-71
2022/09/05 08:20:50;;;;;;;9.08;4.72;;;;;;;18.65;46.42;100175.61;1731616;82;20969;-69
2022/09/05 08:24:11;;;;;;;7.22;4.83;;;;;;;18.67;46.88;100168.45;1732305;82;21016;-70
2022/09/05 08:26:46;;;;;;;11.03;5.08;;;;;;;18.74;47.11;100161.39;1731772;82;20984;-70
2022/09/05 08:29:25;;;;;;;6.10;4.50;;;;;;;18.83;45.99;100164.73;1711231;82;21262;-71
2022/09/05 08:32:07;;;;;;;7.85;4.53;;;;;;;18.78;45.98;100163.37;1731663;82;21019;-71
2022/09/05 08:34:42;;;;;;;7.05;4.85;;;;;;;18.71;46.27;100156.78;1732326;81;21016;-72
2022/09/05 08:37:21;;;;;;;10.38;5.47;;;;;;;18.72;46.88;100171.19;1734010;82;20953;-70
2022/09/05 08:39:56;;;;;;;8.18;5.05;;;;;;;18.74;46.79;100156.59;1732007;82;21047;-70
2022/09/05 08:43:23;;;;;;;6.53;4.62;;;;;;;18.71;46.60;100154.15;1731568;82;21005;-71
2022/09/05 08:46:03;;;;;;;8.00;5.33;;;;;;;18.54;46.75;100146.83;1732373;82;21403;-72
2022/09/05 08:49:03;;;;;;;8.60;5.95;;;;;;;18.37;47.36;100151.47;1732572;82;20976;-71
2022/09/05 08:51:39;;;;;;;6.78;4.62;;;;;;;18.24;47.82;100149.58;1674163;84;21711;-70
2022/09/05 08:54:30;;;;;;;10.70;5.67;;;;;;;18.11;48.03;100155.24;1718668;82;21138;-73
2022/09/05 08:57:41;;;;;;;11.08;5.37;;;;;;;18.05;48.80;100149.03;1713570;82;21887;-71
2022/09/05 09:00:10;;;;;;;8.08;5.30;;;;;;;18.05;49.19;100147.71;1731750;82;21031;-70
2022/09/05 09:03:17;;;;;;;9.48;5.85;;;;;;;18.04;48.87;100151.75;1712325;82;21500;-70
2022/09/05 09:06:17;;;;;;;8.35;5.20;;;;;;;18.01;49.04;100146.67;1731367;82;21051;-70
2022/09/05 09:09:34;;;;;;;7.42;5.00;;;;;;;17.87;49.11;100148.38;1731487;82;21044;-72
2022/09/05 09:12:45;;;;;;;9.83;5.33;;;;;;;17.74;49.77;100143.48;1731423;82;21133;-70
2022/09/05 09:15:46;;;;;;;8.00;5.55;;;;;;;17.66;50.49;100148.34;1730840;82;21024;-71
2022/09/05 09:18:18;;;;;;;10.03;5.72;;;;;;;17.53;50.93;100152.16;1731770;82;21067;-69
2022/09/05 09:20:55;;;;;;;7.55;5.33;;;;;;;17.43;51.97;100152.77;1731941;82;21003;-70
2022/09/05 09:23:36;;;;;;;7.75;5.45;;;;;;;17.35;51.83;100159.81;1732234;82;21066;-70
2022/09/05 09:26:16;;;;;;;7.83;5.20;;;;;;;17.29;51.91;100160.62;1732243;82;21202;-69
2022/09/05 09:28:49;;;;;;;5.97;5.28;;;;;;;17.20;52.66;100160.67;1732290;82;21007;-70
2022/09/05 09:31:39;;;;;;;8.00;5.53;;;;;;;17.15;53.03;100159.66;1732552;82;21035;-70
2022/09/05 09:34:31;;;;;;;6.83;5.70;;;;;;;17.13;53.45;100154.10;1732755;82;21056;-70
2022/09/05 09:37:30;;;;;;;8.03;5.80;;;;;;;17.15;53.01;100152.23;1732607;82;21160;-70
2022/09/05 09:40:38;;;;;;;6.12;4.83;;;;;;;17.15;52.94;100159.66;1732748;82;21223;-70
2022/09/05 09:43:37;;;;;;;9.33;5.28;;;;;;;17.15;52.90;100154.39;1732356;81;20997;-70
2022/09/05 09:46:27;;;;;;;14.03;10.32;;;;;;;17.15;53.54;100157.02;1732636;82;20981;-70
2022/09/05 09:49:06;;;;;;;7.37;5.78;;;;;;;17.13;53.38;100147.53;1732603;82;21020;-71
2022/09/05 09:51:47;;;;;;;8.45;6.15;;;;;;;17.13;53.36;100153.63;1732918;82;21027;-70
2022/09/05 09:54:46;;;;;;;6.20;5.60;;;;;;;17.18;53.18;100146.80;1733218;82;21135;-71
2022/09/05 09:57:50;;;;;;;10.53;5.83;;;;;;;17.26;52.96;100135.36;1726268;82;20988;-70
2022/09/05 10:00:22;;;;;;;12.23;7.70;;;;;;;17.45;52.75;100133.80;1712347;82;21109;-71
2022/09/05 10:03:46;;;;;;;8.25;6.28;;;;;;;17.73;52.58;100133.89;1733035;82;21221;-70
2022/09/05 10:06:35;;;;;;;6.87;5.10;;;;;;;17.94;51.85;100133.06;1732424;82;21601;-71
2022/09/05 10:09:20;;;;;;;6.15;4.60;;;;;;;18.12;51.30;100132.39;1732937;82;21102;-72
2022/09/05 10:12:49;;;;;;;5.95;4.55;;;;;;;18.18;50.66;100132.88;1708839;82;21601;-71
2022/09/05 10:15:43;;;;;;;7.45;4.95;;;;;;;18.12;50.46;100133.24;1730568;82;21062;-70
2022/09/05 10:18:34;;;;;;;9.83;5.00;;;;;;;18.04;51.62;100142.54;1715102;82;21091;-71
2022/09/05 10:21:13;;;;;;;6.55;5.25;;;;;;;17.88;52.03;100144.80;1731914;82;21091;-70
2022/09/05 10:24:15;;;;;;;5.12;4.60;;;;;;;17.77;52.27;100139.83;1716067;82;21858;-70
2022/09/05 10:26:57;;;;;;;7.05;5.45;;;;;;;17.65;52.50;100138.77;1731935;82;21016;-70
2022/09/05 10:30:01;;;;;;;6.08;5.35;;;;;;;17.50;53.23;100141.81;1733018;82;21330;-70
2022/09/05 10:32:43;;;;;;;10.72;6.37;;;;;;;17.46;53.81;100141.61;1736765;82;21049;-70
2022/09/05 10:35:27;;;;;;;7.20;5.53;;;;;;;17.42;54.18;100140.56;1712100;82;21563;-70
2022/09/05 10:38:05;;;;;;;6.62;5.25;;;;;;;17.44;54.22;100132.11;1724949;82;21164;-70
2022/09/05 10:40:34;;;;;;;8.68;6.12;;;;;;;17.48;54.19;100129.69;1732503;82;21476;-70
2022/09/05 10:43:16;;;;;;;9.98;5.78;;;;;;;17.47;54.43;100127.99;1732915;82;21051;-72
2022/09/05 10:45:59;;;;;;;6.63;5.60;;;;;;;17.42;54.91;100122.16;1730689;82;21078;-71
2022/09/05 10:48:38;;;;;;;7.85;5.72;;;;;;;17.41;55.05;100121.30;1732869;82;21056;-71
2022/09/05 10:51:17;;;;;;;7.42;5.62;;;;;;;17.38;55.44;100114.94;1732723;82;21172;-70
2022/09/05 10:54:01;;;;;;;8.15;6.00;;;;;;;17.38;56.10;100116.25;1730032;82;21036;-71
2022/09/05 10:56:33;;;;;;;7.75;5.80;;;;;;;17.41;56.17;100115.20;1732780;82;21468;-69
2022/09/05 10:59:03;;;;;;;8.63;5.85;;;;;;;17.44;55.33;100110.61;1732435;82;21313;-70
2022/09/05 11:01:59;;;;;;;10.88;6.25;;;;;;;17.50;55.03;100114.20;1732578;82;21080;-70
2022/09/05 11:04:50;;;;;;;6.45;5.35;;;;;;;17.59;54.95;100106.20;1732505;82;21244;-70
2022/09/05 11:07:40;;;;;;;5.85;5.20;;;;;;;17.74;54.89;100094.81;1689473;82;22721;-72
2022/09/05 11:10:45;;;;;;;6.90;5.22;;;;;;;17.92;54.58;100088.03;1733108;82;21576;-74
2022/09/05 11:13:45;;;;;;;8.55;5.12;;;;;;;18.06;54.83;100082.28;1651765;85;21695;-70
2022/09/05 11:16:31;;;;;;;6.53;4.95;;;;;;;18.29;54.10;100086.58;1733258;82;21049;-71
2022/09/05 11:19:14;;;;;;;6.45;4.33;;;;;;;18.48;53.50;100083.98;1731828;82;22366;-70
2022/09/05 11:22:03;;;;;;;8.78;4.40;;;;;;;18.65;51.86;100085.56;1732186;82;21109;-70
2022/09/05 11:24:38;;;;;;;13.55;5.85;;;;;;;18.72;51.81;100081.59;1712984;82;21069;-71
2022/09/05 11:27:39;;;;;;;6.30;4.50;;;;;;;18.85;51.29;100078.51;1713778;82;21010;-71
2022/09/05 11:30:22;;;;;;;5.17;4.50;;;;;;;19.07;50.24;100081.05;1730847;82;20976;-72
2022/09/05 11:32:57;;;;;;;7.37;4.70;;;;;;;19.32;49.32;100075.81;1710173;83;21295;-72
2022/09/05 11:35:44;;;;;;;5.80;4.60;;;;;;;19.52;49.33;100064.78;1705584;82;21046;-72
2022/09/05 11:38:39;;;;;;;4.80;4.37;;;;;;;19.72;48.53;100058.12;1713029;83;21473;-70
2022/09/05 11:41:45;;;;;;;5.30;4.35;;;;;;;19.89;48.08;100056.45;1677993;85;21520;-70
2022/09/05 11:44:48;;;;;;;8.08;4.58;;;;;;;20.04;46.12;100049.23;1674559;84;21080;-71
2022/09/05 11:47:43;;;;;;;8.70;4.70;;;;;;;20.09;46.00;100052.40;1715098;83;21125;-70
2022/09/05 11:50:30;;;;;;;9.28;4.72;;;;;;;20.09;45.64;100036.55;1708241;83;21109;-71
2022/09/05 11:53:09;;;;;;;6.37;4.53;;;;;;;20.16;45.43;100035.64;1699659;84;21037;-72
2022/09/05 11:56:18;;;;;;;8.25;5.40;;;;;;;20.22;45.03;100033.86;1709550;82;21049;-72
2022/09/05 11:59:12;;;;;;;6.92;4.60;;;;;;;20.21;45.58;100030.84;1730089;82;21006;-71
2022/09/05 12:02:11;;;;;;;6.67;5.47;;;;;;;20.25;45.57;100022.60;1730954;82;21240;-72
2022/09/05 12:04:46;;;;;;;5.85;4.67;;;;;;;20.30;45.07;100017.83;1708614;82;21011;-72
2022/09/05 12:07:22;;;;;;;5.37;4.87;;;;;;;20.26;44.16;100019.48;1722192;82;22227;-71
2022/09/05 12:10:29;;;;;;;8.68;5.65;;;;;;;20.14;44.57;100023.02;1731373;82;21108;-71
2022/09/05 12:13:47;;;;;;;9.75;5.03;;;;;;;19.99;44.87;100015.70;1731840;82;21073;-73
2022/09/05 12:16:40;;;;;;;6.72;5.20;;;;;;;19.89;45.24;100018.17;1733998;82;21247;-70
2022/09/05 12:19:31;;;;;;;5.93;4.73;;;;;;;19.87;45.15;100014.80;1719472;82;21040;-71
2022/09/05 12:22:19;;;;;;;9.00;5.87;;;;;;;19.88;45.54;100008.56;1725948;82;21021;-70
2022/09/05 12:25:21;;;;;;;5.37;4.80;;;;;;;19.93;46.48;100006.92;1719426;82;21033;-72
2022/09/05 12:27:59;;;;;;;6.12;5.22;;;;;;;20.04;46.00;100001.70;1663411;84;21263;-71
2022/09/05 12:30:28;;;;;;;10.98;4.92;;;;;;;20.07;46.11;100000.16;1623339;87;21866;-70
2022/09/05 12:33:15;;;;;;;5.87;4.70;;;;;;;20.08;45.63;99987.33;1624163;87;21026;-70
2022/09/05 12:36:10;;;;;;;7.65;5.47;;;;;;;20.08;45.42;99983.84;1622146;88;21557;-71
2022/09/05 12:39:05;;;;;;;7.28;4.30;;;;;;;20.05;45.92;99982.74;1664797;85;21096;-70
2022/09/05 12:42:03;;;;;;;5.97;4.40;;;;;;;19.99;45.37;99979.22;1640692;85;21047;-73
2022/09/05 12:45:14;;;;;;;6.47;4.47;;;;;;;19.91;44.88;99979.79;1627453;85;22035;-71
2022/09/05 12:47:58;;;;;;;6.03;3.92;;;;;;;19.83;44.15;99976.84;1658987;85;21209;-69
2022/09/05 12:50:53;;;;;;;4.00;3.60;;;;;;;19.75;44.30;99976.56;1644606;85;21030;-70
2022/09/05 12:53:23;;;;;;;5.25;3.80;;;;;;;19.72;43.02;99969.70;1659225;84;21084;-72
2022/09/05 12:56:02;;;;;;;4.53;3.50;;;;;;;19.66;43.21;99971.92;1660499;84;23506;-71
2022/09/05 12:58:40;;;;;;;6.87;4.37;;;;;;;19.56;43.33;99966.00;1681946;82;22593;-72
2022/09/05 13:01:16;;;;;;;4.55;3.60;;;;;;;19.44;43.94;99958.89;1732959;82;21550;-72
2022/09/05 13:04:01;;;;;;;6.37;3.70;;;;;;;19.39;43.95;99967.59;1728822;82;21137;-71